Time;durP1;ratioP1;P1;durP2;ratioP2;P2;SDS_P1;SDS_P2;PMS_P1;PMS_P2;Temp;Humidity;BMP_temperature;BMP_pressure;BME280_temperature;BME280_humidity;BME280_pressure;Samples;Min_cycle;Max_cycle;Signal;HPM_P1;HPM_P2
2022/06/13 07:31:01;;;;;;;7.28;4.82;;;;;;;;;;5068030;28;20379;-65
2022/06/13 07:33:27;;;;;;;7.22;4.97;;;;;;;;;;5057822;28;20488;-65
2022/06/13 07:35:53;;;;;;;11.25;5.32;;;;;;;;;;5055575;28;20109;-67
2022/06/13 07:38:19;;;;;;;9.23;4.93;;;;;;;;;;5058936;28;20032;-67
2022/06/13 07:40:50;;;;;;;11.90;5.32;;;;;;;;;;5056661;28;20017;-65
2022/06/13 07:43:30;;;;;;;11.30;5.10;;;;;;;;;;5046563;28;20036;-67
2022/06/13 07:45:57;;;;;;;6.03;5.05;;;;;;;;;;5047460;28;20534;-65
2022/06/13 07:48:23;;;;;;;7.13;4.95;;;;;;;;;;5048297;28;20021;-62
2022/06/13 07:50:49;;;;;;;7.70;5.57;;;;;;;;;;5047846;28;20048;-65
2022/06/13 07:53:16;;;;;;;8.25;5.22;;;;;;;;;;5048057;28;20538;-66
2022/06/13 07:55:42;;;;;;;7.55;4.43;;;;;;;;;;5047738;28;20065;-62
2022/06/13 07:58:13;;;;;;;6.55;4.60;;;;;;;;;;5047772;28;20112;-62
2022/06/13 08:00:39;;;;;;;7.70;5.15;;;;;;;;;;5047814;28;20029;-63
2022/06/13 08:03:06;;;;;;;7.75;4.60;;;;;;;;;;5048107;28;20112;-65
2022/06/13 08:05:32;;;;;;;8.38;4.57;;;;;;;;;;5047450;28;20025;-64
2022/06/13 08:07:59;;;;;;;11.05;4.47;;;;;;;;;;5047835;28;20032;-63
2022/06/13 08:10:25;;;;;;;6.88;4.68;;;;;;;;;;5047680;28;20148;-67
2022/06/13 08:12:51;;;;;;;8.48;4.32;;;;;;;;;;5047770;28;20032;-62
2022/06/13 08:15:17;;;;;;;9.32;4.82;;;;;;;;;;5047784;28;20029;-64
2022/06/13 08:17:43;;;;;;;6.53;5.00;;;;;;;;;;5047836;28;20108;-63
2022/06/13 08:20:10;;;;;;;8.73;5.05;;;;;;;;;;5047768;28;20445;-66
2022/06/13 08:22:43;;;;;;;9.27;4.65;;;;;;;;;;5047455;28;20025;-64
2022/06/13 08:25:15;;;;;;;12.38;4.85;;;;;;;;;;5047531;28;20112;-65
2022/06/13 08:27:41;;;;;;;;;;;;;;;;;;5047982;28;20032;-65
2022/06/13 08:30:07;;;;;;;8.80;4.80;;;;;;;;;;5047020;28;19921;-63
2022/06/13 08:32:34;;;;;;;6.93;4.60;;;;;;;;;;5046993;28;20030;-65
2022/06/13 08:35:00;;;;;;;6.97;4.38;;;;;;;;;;5046343;28;20044;-65
2022/06/13 08:37:26;;;;;;;11.50;5.40;;;;;;;;;;5047432;28;20017;-63
2022/06/13 08:39:52;;;;;;;6.88;4.47;;;;;;;;;;5049230;28;20075;-65
2022/06/13 08:42:20;;;;;;;9.80;4.72;;;;;;;;;;5033924;28;20021;-66
2022/06/13 08:44:50;;;;;;;6.85;4.78;;;;;;;;;;5033298;28;20026;-68
2022/06/13 08:47:22;;;;;;;8.65;4.45;;;;;;;;;;5031927;28;20404;-66
2022/06/13 08:49:48;;;;;;;;;;;;;;;;;;5033328;28;20396;-67
2022/06/13 08:52:41;;;;;;;8.20;4.30;;;;;;;;;;5033382;28;19905;-68
2022/06/13 08:55:13;;;;;;;7.22;3.83;;;;;;;;;;5033678;28;20030;-65
2022/06/13 08:57:43;;;;;;;8.02;4.50;;;;;;;;;;5032878;28;20121;-66
2022/06/13 09:00:11;;;;;;;5.95;3.90;;;;;;;;;;5036659;28;20040;-67
2022/06/13 09:02:43;;;;;;;9.20;4.53;;;;;;;;;;5043011;28;20033;-63
2022/06/13 09:05:13;;;;;;;7.72;4.60;;;;;;;;;;5039980;28;20022;-66
2022/06/13 09:07:45;;;;;;;6.90;4.60;;;;;;;;;;5041203;28;20109;-63
2022/06/13 09:10:10;;;;;;;;;;;;;;;;;;5042113;28;20409;-66
2022/06/13 09:12:52;;;;;;;4.68;3.97;;;;;;;;;;5043005;28;19911;-68
2022/06/13 09:15:24;;;;;;;7.35;4.38;;;;;;;;;;5041505;28;20028;-67
2022/06/13 09:18:09;;;;;;;7.28;4.07;;;;;;;;;;5041806;28;20072;-68
2022/06/13 09:20:38;;;;;;;7.55;4.47;;;;;;;;;;5040881;28;20107;-68
2022/06/13 09:23:15;;;;;;;7.05;4.22;;;;;;;;;;5043976;28;20029;-66
2022/06/13 09:25:46;;;;;;;5.22;3.92;;;;;;;;;;5050425;28;20104;-64
2022/06/13 09:28:27;;;;;;;7.07;4.82;;;;;;;;;;5048485;28;20120;-64
2022/06/13 09:31:14;;;;;;;7.50;5.05;;;;;;;;;;5043688;28;20054;-66
2022/06/13 09:33:46;;;;;;;7.40;4.70;;;;;;;;;;5042746;28;20128;-64
2022/06/13 09:36:12;;;;;;;9.55;5.07;;;;;;;;;;5041403;28;20081;-65
2022/06/13 09:38:45;;;;;;;7.20;5.13;;;;;;;;;;5044185;28;20472;-63
2022/06/13 09:41:12;;;;;;;7.00;4.68;;;;;;;;;;5045488;28;20044;-69
2022/06/13 09:43:57;;;;;;;5.30;4.47;;;;;;;;;;5035692;28;20454;-68
2022/06/13 09:46:29;;;;;;;8.88;4.53;;;;;;;;;;5038421;28;20021;-71
2022/06/13 09:49:08;;;;;;;6.10;4.78;;;;;;;;;;5040352;28;20021;-67
2022/06/13 09:51:49;;;;;;;7.30;4.90;;;;;;;;;;5038901;28;20040;-71
2022/06/13 09:54:22;;;;;;;9.80;5.22;;;;;;;;;;5041485;28;20439;-70
2022/06/13 09:56:58;;;;;;;9.90;5.10;;;;;;;;;;5041297;28;20101;-67
2022/06/13 09:59:43;;;;;;;6.35;4.30;;;;;;;;;;5038736;28;20385;-66
2022/06/13 10:02:21;;;;;;;9.75;4.82;;;;;;;;;;5040084;28;20113;-67
2022/06/13 10:04:47;;;;;;;7.43;4.13;;;;;;;;;;5039509;28;20402;-64
2022/06/13 10:07:13;;;;;;;8.80;4.25;;;;;;;;;;5039963;28;20628;-64
2022/06/13 10:09:42;;;;;;;7.88;4.20;;;;;;;;;;5042069;28;20033;-64
2022/06/13 10:12:11;;;;;;;5.10;4.32;;;;;;;;;;5041278;28;20048;-68
2022/06/13 10:14:37;;;;;;;6.53;3.90;;;;;;;;;;5038627;28;20029;-67
2022/06/13 10:17:23;;;;;;;6.32;3.60;;;;;;;;;;5036390;28;20025;-67
2022/06/13 10:20:03;;;;;;;6.20;3.67;;;;;;;;;;5031563;28;20093;-68
2022/06/13 10:22:48;;;;;;;6.80;3.55;;;;;;;;;;5031110;28;20060;-68
2022/06/13 10:25:14;;;;;;;7.57;3.90;;;;;;;;;;5035835;28;20060;-68
2022/06/13 10:27:47;;;;;;;7.00;3.80;;;;;;;;;;5032260;28;20111;-68
2022/06/13 10:30:20;;;;;;;6.72;3.97;;;;;;;;;;5037071;28;20053;-63
2022/06/13 10:32:58;;;;;;;5.93;3.40;;;;;;;;;;5039116;28;20013;-69
2022/06/13 10:35:27;;;;;;;6.07;3.22;;;;;;;;;;5039129;28;20025;-63
2022/06/13 10:38:04;;;;;;;4.93;2.80;;;;;;;;;;5040129;28;20013;-69
2022/06/13 10:40:31;;;;;;;5.13;3.08;;;;;;;;;;5042204;28;20032;-69
2022/06/13 10:42:57;;;;;;;6.55;3.38;;;;;;;;;;5050783;28;20044;-65
2022/06/13 10:45:24;;;;;;;3.97;2.90;;;;;;;;;;5052704;28;20025;-64
2022/06/13 10:47:50;;;;;;;4.93;2.90;;;;;;;;;;5051226;28;20060;-70
2022/06/13 10:50:16;;;;;;;3.65;3.05;;;;;;;;;;5052340;28;20029;-68
2022/06/13 10:52:46;;;;;;;6.03;3.08;;;;;;;;;;5053702;28;20033;-64
2022/06/13 10:55:14;;;;;;;6.70;3.10;;;;;;;;;;5040300;28;20041;-63
2022/06/13 10:57:42;;;;;;;5.50;3.13;;;;;;;;;;5039951;28;20021;-66
2022/06/13 11:00:11;;;;;;;4.65;2.88;;;;;;;;;;5033532;28;20041;-63
2022/06/13 11:02:38;;;;;;;3.97;2.97;;;;;;;;;;5034074;28;20025;-66
2022/06/13 11:05:08;;;;;;;3.13;2.70;;;;;;;;;;5039746;28;20032;-68
2022/06/13 11:07:36;;;;;;;7.60;2.80;;;;;;;;;;5031139;28;20025;-66
2022/06/13 11:10:03;;;;;;;4.63;2.95;;;;;;;;;;5031411;28;20079;-64
2022/06/13 11:12:33;;;;;;;4.85;2.70;;;;;;;;;;5030844;28;20034;-66
2022/06/13 11:23:36;;;;;;;3.88;2.78;;;;;;;;;;5039822;28;20041;-67
2022/06/13 11:26:03;;;;;;;3.53;2.53;;;;;;;;;;5042640;28;20029;-69
2022/06/13 11:28:38;;;;;;;5.18;2.80;;;;;;;;;;5032796;28;20021;-68
2022/06/13 11:31:21;;;;;;;4.65;2.95;;;;;;;;;;5043750;28;20401;-68
2022/06/13 11:33:48;;;;;;;5.47;2.80;;;;;;;;;;5034524;28;20401;-66
2022/06/13 11:36:17;;;;;;;4.32;2.55;;;;;;;;;;5050632;28;20032;-68
2022/06/13 11:38:56;;;;;;;3.13;2.40;;;;;;;;;;5039317;28;20047;-68
2022/06/13 11:41:57;;;;;;;4.35;2.15;;;;;;;;;;5049273;28;20060;-66
2022/06/13 11:44:24;;;;;;;4.35;2.53;;;;;;;;;;5037938;28;20055;-66
2022/06/13 11:46:53;;;;;;;3.17;2.60;;;;;;;;;;5036725;28;20046;-67
2022/06/13 11:49:19;;;;;;;3.42;2.70;;;;;;;;;;5035900;28;20061;-65
2022/06/13 11:51:58;;;;;;;4.10;2.70;;;;;;;;;;5034721;28;20068;-65
2022/06/13 11:54:27;;;;;;;3.20;2.28;;;;;;;;;;5033198;28;20028;-64
2022/06/13 11:57:29;;;;;;;4.63;2.75;;;;;;;;;;5036481;28;20067;-64
2022/06/13 12:00:04;;;;;;;4.00;2.37;;;;;;;;;;4948499;29;20086;-70
2022/06/13 12:02:36;;;;;;;4.25;2.65;;;;;;;;;;4944483;29;20459;-66
2022/06/13 12:05:02;;;;;;;3.53;2.42;;;;;;;;;;4948908;28;20094;-66
2022/06/13 12:07:30;;;;;;;4.43;2.50;;;;;;;;;;4948908;28;20096;-67
2022/06/13 12:09:57;;;;;;;4.07;2.60;;;;;;;;;;4949294;29;20043;-65
2022/06/13 12:12:24;;;;;;;5.03;2.33;;;;;;;;;;4948829;28;20439;-66
2022/06/13 12:14:50;;;;;;;5.53;2.50;;;;;;;;;;4950264;28;20578;-67
2022/06/13 12:17:22;;;;;;;5.68;2.78;;;;;;;;;;4951394;28;20094;-67
2022/06/13 12:20:08;;;;;;;4.45;3.13;;;;;;;;;;4953513;28;20038;-65
2022/06/13 12:22:34;;;;;;;3.10;2.60;;;;;;;;;;4953086;28;20464;-66
2022/06/13 12:25:00;;;;;;;5.72;2.70;;;;;;;;;;4953506;29;20039;-66
2022/06/13 12:27:35;;;;;;;6.78;3.05;;;;;;;;;;4953683;29;20502;-65
2022/06/13 12:30:07;;;;;;;5.05;2.72;;;;;;;;;;4953273;29;20571;-68
2022/06/13 12:32:33;;;;;;;;;;;;;;;;;;4954139;28;20039;-64
2022/06/13 12:35:02;;;;;;;3.25;2.05;;;;;;;;;;5011509;28;19917;-66
2022/06/13 12:37:55;;;;;;;5.65;2.38;;;;;;;;;;5013870;28;20103;-65
2022/06/13 12:40:29;;;;;;;4.30;2.55;;;;;;;;;;5013116;28;20046;-64
2022/06/13 12:42:55;;;;;;;2.53;1.98;;;;;;;;;;5014176;28;20034;-65
2022/06/13 12:45:21;;;;;;;3.83;2.30;;;;;;;;;;5014274;28;20556;-65
2022/06/13 12:47:54;;;;;;;4.57;2.72;;;;;;;;;;5014102;28;20113;-67
2022/06/13 12:50:23;;;;;;;3.97;2.60;;;;;;;;;;5013980;28;20033;-65
2022/06/13 12:52:49;;;;;;;3.03;2.55;;;;;;;;;;5012980;28;20026;-66
2022/06/13 12:55:29;;;;;;;3.90;2.83;;;;;;;;;;5013934;28;20025;-67
2022/06/13 12:57:55;;;;;;;4.20;2.63;;;;;;;;;;5013894;28;20057;-64
2022/06/13 13:00:21;;;;;;;5.13;2.60;;;;;;;;;;5013526;28;20716;-64
2022/06/13 13:02:50;;;;;;;6.63;2.95;;;;;;;;;;5015643;28;20437;-64
2022/06/13 13:05:26;;;;;;;4.38;3.00;;;;;;;;;;5013827;28;20501;-65
2022/06/13 13:08:05;;;;;;;8.95;5.85;;;;;;;;;;5017037;28;20743;-66
2022/06/13 13:10:37;;;;;;;5.15;3.50;;;;;;;;;;5014837;28;20041;-65
2022/06/13 13:13:15;;;;;;;3.88;2.83;;;;;;;;;;5013406;28;20022;-66
2022/06/13 13:15:43;;;;;;;4.72;3.17;;;;;;;;;;5013804;28;20030;-66
2022/06/13 13:18:18;;;;;;;9.88;5.18;;;;;;;;;;5013511;28;20030;-65
2022/06/13 13:21:00;;;;;;;4.70;2.80;;;;;;;;;;5013579;28;20030;-65
2022/06/13 13:23:29;;;;;;;5.50;3.95;;;;;;;;;;5012773;28;20057;-66
2022/06/13 13:25:55;;;;;;;7.00;4.35;;;;;;;;;;5013077;28;20105;-66
2022/06/13 13:28:24;;;;;;;9.52;4.35;;;;;;;;;;5012842;28;20037;-65
2022/06/13 13:30:57;;;;;;;5.88;3.88;;;;;;;;;;5012630;28;20062;-66
2022/06/13 13:33:46;;;;;;;8.25;5.28;;;;;;;;;;5013210;28;20018;-66
2022/06/13 13:36:12;;;;;;;4.38;2.70;;;;;;;;;;5012868;28;20037;-65
2022/06/13 13:38:41;;;;;;;5.47;2.60;;;;;;;;;;5013144;28;20026;-64
2022/06/13 13:41:13;;;;;;;4.78;3.00;;;;;;;;;;5013238;28;20026;-66
2022/06/13 13:43:43;;;;;;;5.32;3.63;;;;;;;;;;5013019;28;20126;-64
2022/06/13 13:46:39;;;;;;;4.75;2.95;;;;;;;;;;5012739;28;20014;-65
2022/06/13 13:49:07;;;;;;;6.90;3.72;;;;;;;;;;5009859;28;20041;-66
2022/06/13 13:51:35;;;;;;;3.78;2.97;;;;;;;;;;5010533;28;20085;-65
2022/06/13 13:54:04;;;;;;;4.38;2.78;;;;;;;;;;5010496;28;20473;-65
2022/06/13 13:56:42;;;;;;;4.88;3.13;;;;;;;;;;5010332;28;20033;-66
2022/06/13 13:59:11;;;;;;;4.68;3.10;;;;;;;;;;5027959;28;20096;-66
2022/06/13 14:01:37;;;;;;;5.28;2.90;;;;;;;;;;5029887;28;20061;-65
2022/06/13 14:04:20;;;;;;;3.00;2.53;;;;;;;;;;5029884;28;20531;-64
2022/06/13 14:06:50;;;;;;;4.80;2.50;;;;;;;;;;5029454;28;20072;-64
2022/06/13 14:09:20;;;;;;;3.75;2.70;;;;;;;;;;5029766;28;20029;-64
2022/06/13 14:12:08;;;;;;;4.38;2.80;;;;;;;;;;5029537;28;20576;-65
2022/06/13 14:14:39;;;;;;;5.90;2.67;;;;;;;;;;5029884;28;20075;-71
2022/06/13 14:17:07;;;;;;;3.90;2.50;;;;;;;;;;5029413;28;20026;-66
2022/06/13 14:19:34;;;;;;;5.72;2.60;;;;;;;;;;5029498;28;20038;-67
2022/06/13 14:22:13;;;;;;;6.82;2.72;;;;;;;;;;5029040;28;20408;-65
2022/06/13 14:25:08;;;;;;;6.82;2.83;;;;;;;;;;5026813;28;20091;-65
2022/06/13 14:27:49;;;;;;;4.95;3.25;;;;;;;;;;5029196;28;20038;-63
2022/06/13 14:33:02;;;;;;;4.80;3.00;;;;;;;;;;5029637;28;20087;-62
2022/06/13 14:35:44;;;;;;;5.40;2.95;;;;;;;;;;5029672;28;20454;-63
2022/06/13 14:38:19;;;;;;;7.25;3.10;;;;;;;;;;5029302;28;20115;-63
2022/06/13 14:40:51;;;;;;;5.75;2.97;;;;;;;;;;5029468;28;20033;-63
2022/06/13 14:43:20;;;;;;;3.72;2.85;;;;;;;;;;5029241;28;20029;-67
2022/06/13 14:45:46;;;;;;;6.25;4.53;;;;;;;;;;5029349;28;20045;-64
2022/06/13 14:48:15;;;;;;;6.47;3.53;;;;;;;;;;5029249;28;20026;-64
2022/06/13 14:50:46;;;;;;;6.00;3.83;;;;;;;;;;5029153;28;20099;-64
2022/06/13 14:53:31;;;;;;;10.82;4.78;;;;;;;;;;5028845;28;20110;-65
2022/06/13 14:56:06;;;;;;;6.07;3.72;;;;;;;;;;5029231;28;20132;-63
2022/06/13 14:58:44;;;;;;;8.05;5.20;;;;;;;;;;5028768;28;20453;-64
2022/06/13 15:01:15;;;;;;;7.50;3.80;;;;;;;;;;5028894;28;20029;-65
2022/06/13 15:04:00;;;;;;;5.38;3.75;;;;;;;;;;5022068;28;20074;-65
2022/06/13 15:06:27;;;;;;;6.80;3.28;;;;;;;;;;5025971;28;20036;-65
2022/06/13 15:09:08;;;;;;;7.50;3.17;;;;;;;;;;5031397;28;20029;-63
2022/06/13 15:11:38;;;;;;;3.53;2.92;;;;;;;;;;5031225;28;20033;-65
2022/06/13 15:14:04;;;;;;;5.82;3.47;;;;;;;;;;5031310;28;20025;-63
2022/06/13 15:16:31;;;;;;;6.30;3.38;;;;;;;;;;5031416;28;20048;-62
2022/06/13 15:18:59;;;;;;;6.18;3.58;;;;;;;;;;5030782;28;20538;-64
2022/06/13 15:21:26;;;;;;;3.90;2.88;;;;;;;;;;5029754;28;20026;-65
2022/06/13 15:23:53;;;;;;;6.40;3.15;;;;;;;;;;5030363;28;20032;-64
2022/06/13 15:26:23;;;;;;;4.90;2.92;;;;;;;;;;5030980;28;20128;-64
2022/06/13 15:29:04;;;;;;;5.13;2.60;;;;;;;;;;5030974;28;20486;-64
2022/06/13 15:31:31;;;;;;;4.83;2.80;;;;;;;;;;5030904;28;20030;-65
2022/06/13 15:34:15;;;;;;;5.82;2.65;;;;;;;;;;5030463;28;20104;-66
2022/06/13 15:36:43;;;;;;;5.90;3.00;;;;;;;;;;5022055;28;20030;-68
2022/06/13 15:39:14;;;;;;;4.97;2.55;;;;;;;;;;5018918;28;20026;-67
2022/06/13 15:41:41;;;;;;;3.47;2.55;;;;;;;;;;5038846;28;20025;-69
2022/06/13 15:44:09;;;;;;;5.30;2.63;;;;;;;;;;5039909;28;20032;-67
2022/06/13 15:46:41;;;;;;;4.47;2.67;;;;;;;;;;5038456;28;20389;-65
2022/06/13 15:49:12;;;;;;;5.07;2.75;;;;;;;;;;5034798;28;20029;-64
2022/06/13 15:51:38;;;;;;;4.15;2.35;;;;;;;;;;5037020;28;20139;-65
2022/06/13 15:54:12;;;;;;;5.50;2.70;;;;;;;;;;5043335;28;20048;-65
2022/06/13 15:56:38;;;;;;;6.18;2.90;;;;;;;;;;5031927;28;20036;-66
2022/06/13 15:59:06;;;;;;;3.70;2.78;;;;;;;;;;5036105;28;20694;-66
2022/06/13 16:01:37;;;;;;;4.50;2.75;;;;;;;;;;5033281;28;20072;-63
2022/06/13 16:04:04;;;;;;;5.10;2.83;;;;;;;;;;5034911;28;20087;-66
2022/06/13 16:06:45;;;;;;;4.97;2.80;;;;;;;;;;5042542;28;20018;-65
2022/06/13 16:09:18;;;;;;;5.70;2.88;;;;;;;;;;5042017;28;20600;-67
2022/06/13 16:11:45;;;;;;;6.47;2.97;;;;;;;;;;5036329;28;20180;-65
2022/06/13 16:14:11;;;;;;;5.35;2.97;;;;;;;;;;5048679;28;20485;-66
2022/06/13 16:16:37;;;;;;;4.63;2.78;;;;;;;;;;5054194;28;20033;-66
2022/06/13 16:19:19;;;;;;;6.88;3.20;;;;;;;;;;5054292;28;20035;-67
2022/06/13 16:21:45;;;;;;;8.20;3.35;;;;;;;;;;5053950;28;20072;-66
2022/06/13 16:24:15;;;;;;;8.35;4.60;;;;;;;;;;5053792;28;20496;-66
2022/06/13 16:26:42;;;;;;;9.00;5.68;;;;;;;;;;5054321;28;20439;-65
2022/06/13 16:29:08;;;;;;;7.30;4.68;;;;;;;;;;5053685;28;20056;-66
2022/06/13 16:31:37;;;;;;;6.63;2.67;;;;;;;;;;5032475;28;20026;-67
2022/06/13 16:34:04;;;;;;;6.07;3.08;;;;;;;;;;5036874;28;20096;-66
2022/06/13 16:36:35;;;;;;;7.47;3.13;;;;;;;;;;5034348;28;20029;-67
2022/06/13 16:39:03;;;;;;;3.55;3.15;;;;;;;;;;5033636;28;20029;-64
2022/06/13 16:41:40;;;;;;;5.55;3.60;;;;;;;;;;5036310;28;20033;-65
2022/06/13 16:44:08;;;;;;;5.32;3.08;;;;;;;;;;5041571;28;20022;-63
2022/06/13 16:46:47;;;;;;;5.30;3.33;;;;;;;;;;5041642;28;20028;-64
2022/06/13 16:49:18;;;;;;;5.72;3.60;;;;;;;;;;5041251;28;20126;-65
2022/06/13 16:51:46;;;;;;;4.35;3.05;;;;;;;;;;5040617;28;20033;-68
2022/06/13 16:54:15;;;;;;;3.67;2.95;;;;;;;;;;5047458;28;20507;-65
2022/06/13 16:56:42;;;;;;;5.85;2.70;;;;;;;;;;5053391;28;20450;-62
2022/06/13 16:59:18;;;;;;;7.00;3.15;;;;;;;;;;5053491;28;20028;-63
2022/06/13 17:01:47;;;;;;;4.78;3.05;;;;;;;;;;5039181;28;20057;-67
2022/06/13 17:04:13;;;;;;;5.03;2.35;;;;;;;;;;5032789;28;20469;-65
2022/06/13 17:06:42;;;;;;;4.45;2.65;;;;;;;;;;5036193;28;20381;-66
2022/06/13 17:09:13;;;;;;;5.47;2.80;;;;;;;;;;5038156;28;20020;-66
2022/06/13 17:11:55;;;;;;;4.80;2.70;;;;;;;;;;5042937;28;20026;-65
2022/06/13 17:14:36;;;;;;;4.35;2.55;;;;;;;;;;5042186;28;20021;-63
2022/06/13 17:17:10;;;;;;;4.53;2.67;;;;;;;;;;5045736;28;20484;-65
2022/06/13 17:19:37;;;;;;;5.35;2.60;;;;;;;;;;5040197;28;20474;-63
2022/06/13 17:22:04;;;;;;;4.43;2.90;;;;;;;;;;5038515;28;20039;-63
2022/06/13 17:24:30;;;;;;;6.05;2.92;;;;;;;;;;5044469;28;20104;-66
2022/06/13 17:32:27;;;;;;;5.07;2.63;;;;;;;;;;5040125;28;20074;-67
2022/06/13 17:34:53;;;;;;;7.55;3.15;;;;;;;;;;5047401;28;20082;-67
2022/06/13 17:37:20;;;;;;;6.15;3.35;;;;;;;;;;5048781;28;20033;-68
2022/06/13 17:39:46;;;;;;;6.95;3.55;;;;;;;;;;5041569;28;20057;-66
2022/06/13 17:42:14;;;;;;;8.23;3.22;;;;;;;;;;5040045;28;20028;-64
2022/06/13 17:44:40;;;;;;;9.77;3.50;;;;;;;;;;5051739;28;20473;-65
2022/06/13 17:47:08;;;;;;;9.40;3.67;;;;;;;;;;5047494;28;20040;-67
2022/06/13 17:49:35;;;;;;;7.55;3.83;;;;;;;;;;5049093;28;20084;-66
2022/06/13 17:52:01;;;;;;;6.57;3.85;;;;;;;;;;5044146;28;20026;-65
2022/06/13 17:54:27;;;;;;;10.27;3.83;;;;;;;;;;5032477;28;20108;-67
2022/06/13 17:56:55;;;;;;;9.07;3.42;;;;;;;;;;5025346;28;20054;-65
2022/06/13 17:59:22;;;;;;;6.03;3.28;;;;;;;;;;5012517;28;20037;-64
2022/06/13 18:01:48;;;;;;;6.20;3.13;;;;;;;;;;5010925;28;20461;-65
2022/06/13 18:04:18;;;;;;;7.95;3.97;;;;;;;;;;5012591;28;20458;-65
2022/06/13 18:06:46;;;;;;;6.07;3.55;;;;;;;;;;5012348;28;20030;-65
2022/06/13 18:09:15;;;;;;;6.75;4.15;;;;;;;;;;5012244;28;20054;-64
2022/06/13 18:11:41;;;;;;;5.90;3.55;;;;;;;;;;5012446;28;20092;-64
2022/06/13 18:14:07;;;;;;;5.72;3.47;;;;;;;;;;5011415;28;20033;-65
2022/06/13 18:16:34;;;;;;;5.50;3.58;;;;;;;;;;5021533;28;20563;-66
2022/06/13 18:19:01;;;;;;;7.57;3.60;;;;;;;;;;5031988;28;20053;-65
2022/06/13 18:21:30;;;;;;;9.55;3.85;;;;;;;;;;5031840;28;20366;-68
2022/06/13 18:23:57;;;;;;;6.07;3.78;;;;;;;;;;5030466;28;20433;-66
2022/06/13 18:26:23;;;;;;;6.88;4.28;;;;;;;;;;5031945;28;20033;-68
2022/06/13 18:28:50;;;;;;;6.82;4.53;;;;;;;;;;5031501;28;20037;-68
2022/06/13 18:31:16;;;;;;;6.80;4.50;;;;;;;;;;5031730;28;20539;-67
2022/06/13 18:33:42;;;;;;;6.18;4.55;;;;;;;;;;5031622;28;20441;-67
2022/06/13 18:36:09;;;;;;;4.97;3.78;;;;;;;;;;5031479;28;20037;-67
2022/06/13 18:38:35;;;;;;;7.30;4.95;;;;;;;;;;5031426;28;20097;-67
2022/06/13 18:41:05;;;;;;;7.63;4.50;;;;;;;;;;5031451;28;20049;-66
2022/06/13 18:43:33;;;;;;;7.63;4.55;;;;;;;;;;5031206;28;20401;-65
2022/06/13 18:45:59;;;;;;;9.25;4.53;;;;;;;;;;5031551;28;20029;-67
2022/06/13 18:48:26;;;;;;;5.95;4.30;;;;;;;;;;5031669;28;20104;-65
2022/06/13 18:50:52;;;;;;;12.10;4.50;;;;;;;;;;5030576;28;20052;-65
2022/06/13 18:53:19;;;;;;;10.93;4.63;;;;;;;;;;5031346;28;20063;-67
2022/06/13 18:55:46;;;;;;;10.40;5.00;;;;;;;;;;5029874;28;20393;-66
2022/06/13 18:58:12;;;;;;;14.38;4.60;;;;;;;;;;5031459;28;20037;-66
2022/06/13 19:00:38;;;;;;;14.88;4.95;;;;;;;;;;5031483;28;20489;-69
2022/06/13 19:03:10;;;;;;;12.15;4.90;;;;;;;;;;5031032;28;20029;-68
2022/06/13 19:05:36;;;;;;;;;;;;;;;;;;5031356;28;20029;-68
2022/06/13 19:08:03;;;;;;;10.90;6.85;;;;;;;;;;5030702;28;19905;-69
2022/06/13 19:10:32;;;;;;;8.43;5.85;;;;;;;;;;5030629;28;20037;-65
2022/06/13 19:12:59;;;;;;;11.25;5.10;;;;;;;;;;5030782;28;20028;-68
2022/06/13 19:15:26;;;;;;;10.15;5.65;;;;;;;;;;5031086;28;20029;-66
2022/06/13 19:17:53;;;;;;;12.20;7.53;;;;;;;;;;5030665;28;20364;-65
2022/06/13 19:20:21;;;;;;;8.45;5.15;;;;;;;;;;5030798;28;20025;-65
2022/06/13 19:22:47;;;;;;;8.57;5.28;;;;;;;;;;5030909;28;20025;-67
2022/06/13 19:25:14;;;;;;;8.23;5.40;;;;;;;;;;5030895;28;20021;-66
2022/06/13 19:27:41;;;;;;;7.53;5.05;;;;;;;;;;5030550;28;20076;-68
2022/06/13 19:30:08;;;;;;;9.30;5.00;;;;;;;;;;5030651;28;20386;-66
2022/06/13 19:32:39;;;;;;;11.95;6.00;;;;;;;;;;5030882;28;20087;-65
2022/06/13 19:35:08;;;;;;;11.25;6.75;;;;;;;;;;5030981;28;20041;-67
2022/06/13 19:37:34;;;;;;;14.18;7.15;;;;;;;;;;5030007;28;20076;-66
2022/06/13 19:40:01;;;;;;;14.15;7.40;;;;;;;;;;5030962;28;20025;-67
2022/06/13 19:42:29;;;;;;;13.43;5.55;;;;;;;;;;5028145;28;20051;-68
2022/06/13 19:44:55;;;;;;;8.63;6.18;;;;;;;;;;5039402;28;20108;-65
2022/06/13 19:47:21;;;;;;;11.25;5.88;;;;;;;;;;5018088;28;20484;-63
2022/06/13 19:49:47;;;;;;;12.40;5.70;;;;;;;;;;5021195;28;20025;-64
2022/06/13 19:54:58;;;;;;;12.25;5.53;;;;;;;;;;5024778;28;20112;-63
2022/06/13 19:57:25;;;;;;;12.48;5.68;;;;;;;;;;5030435;28;20033;-63
2022/06/13 19:59:52;;;;;;;11.80;5.05;;;;;;;;;;5030227;28;20806;-64
2022/06/13 20:02:18;;;;;;;15.13;6.00;;;;;;;;;;5030102;28;20469;-64
2022/06/13 20:04:44;;;;;;;7.25;5.47;;;;;;;;;;5030074;28;20071;-65
2022/06/13 20:09:54;;;;;;;11.40;5.63;;;;;;;;;;5030075;28;20064;-65
2022/06/13 20:12:26;;;;;;;10.05;5.80;;;;;;;;;;5028747;28;20021;-65
2022/06/13 20:14:53;;;;;;;11.32;6.25;;;;;;;;;;5029147;28;20029;-64
2022/06/13 20:17:19;;;;;;;16.50;12.52;;;;;;;;;;5029453;28;20076;-64
2022/06/13 20:19:46;;;;;;;11.25;7.65;;;;;;;;;;5029408;28;20636;-65
2022/06/13 20:22:18;;;;;;;11.00;6.32;;;;;;;;;;5029142;28;20532;-65
2022/06/13 20:24:44;;;;;;;13.13;6.95;;;;;;;;;;5028772;28;20539;-66
2022/06/13 20:33:20;;;;;;;15.73;7.90;;;;;;;;;;5030161;28;20094;-65
2022/06/13 20:38:23;;;;;;;13.10;7.07;;;;;;;;;;5676995;22;20065;-64
2022/06/13 20:40:49;;;;;;;11.52;6.75;;;;;;;;;;5014102;28;20058;-65
2022/06/13 20:43:16;;;;;;;14.32;7.35;;;;;;;;;;5013800;28;20389;-61
2022/06/13 20:45:44;;;;;;;11.90;7.25;;;;;;;;;;5016847;28;20026;-64
2022/06/13 20:48:21;;;;;;;11.50;5.97;;;;;;;;;;5012959;28;20025;-64
2022/06/13 20:50:48;;;;;;;13.73;9.18;;;;;;;;;;5014991;28;20120;-64
2022/06/13 20:53:14;;;;;;;14.73;7.93;;;;;;;;;;5012447;28;20026;-60
2022/06/13 20:55:41;;;;;;;10.57;5.35;;;;;;;;;;5013445;28;20080;-60
2022/06/13 20:58:07;;;;;;;11.07;5.55;;;;;;;;;;5011432;28;20029;-62
2022/06/13 21:00:34;;;;;;;10.38;6.68;;;;;;;;;;5012031;28;20496;-63
2022/06/13 21:03:00;;;;;;;20.92;14.50;;;;;;;;;;5012456;28;20049;-63
2022/06/13 21:05:28;;;;;;;14.43;6.93;;;;;;;;;;5012558;28;20486;-63
2022/06/13 21:07:55;;;;;;;9.95;6.43;;;;;;;;;;5012278;28;20022;-60
2022/06/13 21:10:21;;;;;;;14.85;9.30;;;;;;;;;;5012377;28;20136;-63
2022/06/13 21:12:50;;;;;;;20.52;13.45;;;;;;;;;;5012167;28;20470;-62
2022/06/13 21:15:22;;;;;;;14.07;12.18;;;;;;;;;;5011948;28;20518;-60
2022/06/13 21:17:48;;;;;;;12.15;8.23;;;;;;;;;;5011839;28;20026;-63
2022/06/13 21:20:14;;;;;;;12.18;8.07;;;;;;;;;;5011323;28;20025;-62
2022/06/13 21:22:41;;;;;;;11.65;7.28;;;;;;;;;;5011949;28;20069;-63
2022/06/13 21:25:08;;;;;;;12.57;7.80;;;;;;;;;;5017322;28;20017;-61
2022/06/13 21:27:34;;;;;;;18.00;7.20;;;;;;;;;;5020762;28;20108;-63
2022/06/13 21:30:01;;;;;;;9.95;5.95;;;;;;;;;;5021357;28;20034;-61
2022/06/13 21:32:27;;;;;;;11.15;6.72;;;;;;;;;;5019976;28;20021;-61
2022/06/13 21:34:53;;;;;;;9.45;6.40;;;;;;;;;;5021595;28;20104;-60
2022/06/13 21:37:20;;;;;;;9.50;6.30;;;;;;;;;;5021148;28;20113;-62
2022/06/13 21:39:47;;;;;;;15.05;8.35;;;;;;;;;;5028895;28;20064;-61
2022/06/13 21:42:13;;;;;;;18.40;11.02;;;;;;;;;;5031705;28;20079;-62
2022/06/13 21:44:40;;;;;;;10.07;6.30;;;;;;;;;;5031559;28;20025;-63
2022/06/13 21:47:07;;;;;;;10.75;6.32;;;;;;;;;;5030945;28;20420;-61
2022/06/13 21:49:37;;;;;;;12.18;6.97;;;;;;;;;;5030601;28;20100;-63
2022/06/13 21:52:04;;;;;;;10.73;7.20;;;;;;;;;;5030912;28;20488;-62
2022/06/13 21:54:30;;;;;;;9.60;6.60;;;;;;;;;;5031234;28;20060;-62
2022/06/13 21:56:56;;;;;;;9.40;5.50;;;;;;;;;;5028925;28;20055;-62
2022/06/13 21:59:22;;;;;;;12.63;9.20;;;;;;;;;;5023880;28;20551;-61
2022/06/13 22:01:48;;;;;;;10.25;5.90;;;;;;;;;;5017364;28;20032;-63
2022/06/13 22:04:14;;;;;;;9.18;5.60;;;;;;;;;;5022193;28;20365;-63
2022/06/13 22:06:40;;;;;;;13.40;9.07;;;;;;;;;;5020664;28;20124;-63
2022/06/13 22:09:07;;;;;;;12.02;7.82;;;;;;;;;;5020664;28;20409;-65
2022/06/13 22:11:33;;;;;;;7.57;5.70;;;;;;;;;;5020215;28;20056;-61
2022/06/13 22:13:59;;;;;;;9.65;5.47;;;;;;;;;;5022011;28;20120;-63
2022/06/13 22:16:26;;;;;;;12.98;9.45;;;;;;;;;;5019600;28;20025;-61
2022/06/13 22:18:52;;;;;;;11.40;6.07;;;;;;;;;;5022182;28;20606;-61
2022/06/13 22:21:18;;;;;;;9.00;6.38;;;;;;;;;;5017513;28;20429;-62
2022/06/13 22:23:44;;;;;;;9.18;7.35;;;;;;;;;;5021092;28;20053;-62
2022/06/13 22:26:10;;;;;;;11.38;7.97;;;;;;;;;;5029227;28;20029;-64
2022/06/13 22:28:36;;;;;;;6.70;4.78;;;;;;;;;;5029125;28;20160;-62
2022/06/13 22:31:02;;;;;;;7.80;5.85;;;;;;;;;;5022350;28;20408;-62
2022/06/13 22:33:28;;;;;;;8.85;4.57;;;;;;;;;;5020861;28;20050;-62
2022/06/13 22:35:54;;;;;;;4.75;3.50;;;;;;;;;;5019272;28;20036;-62
2022/06/13 22:38:22;;;;;;;8.25;5.25;;;;;;;;;;5018734;28;20489;-62
2022/06/13 22:40:49;;;;;;;8.45;4.28;;;;;;;;;;5017120;28;20097;-62
2022/06/13 22:43:16;;;;;;;6.45;3.58;;;;;;;;;;5018873;28;20021;-62
2022/06/13 22:45:43;;;;;;;8.45;3.83;;;;;;;;;;5020429;28;20029;-62
2022/06/13 22:50:56;;;;;;;8.07;3.60;;;;;;;;;;5026557;28;20472;-62
2022/06/13 22:53:22;;;;;;;9.38;4.75;;;;;;;;;;5024317;28;20053;-62
2022/06/13 22:55:48;;;;;;;11.73;5.35;;;;;;;;;;5020078;28;20408;-62
